sensor_id;sensor_type;location;lat;lon;timestamp;P1;durP1;ratioP1;P2;durP2;ratioP2
49396;SDS011;35615;41.410;2.194;2023-08-30T00:01:07;9.37;;;2.60;;
49396;SDS011;35615;41.410;2.194;2023-08-30T00:03:45;8.63;;;2.13;;
49396;SDS011;35615;41.410;2.194;2023-08-30T00:06:33;9.57;;;2.90;;
49396;SDS011;35615;41.410;2.194;2023-08-30T00:09:09;12.18;;;3.20;;
49396;SDS011;35615;41.410;2.194;2023-08-30T00:11:39;12.65;;;2.85;;
49396;SDS011;35615;41.410;2.194;2023-08-30T00:14:24;12.13;;;3.13;;
49396;SDS011;35615;41.410;2.194;2023-08-30T00:16:59;9.43;;;2.43;;
49396;SDS011;35615;41.410;2.194;2023-08-30T00:19:40;7.90;;;3.53;;
49396;SDS011;35615;41.410;2.194;2023-08-30T00:22:17;15.43;;;3.20;;
49396;SDS011;35615;41.410;2.194;2023-08-30T00:24:56;16.17;;;3.03;;
49396;SDS011;35615;41.410;2.194;2023-08-30T00:27:38;8.60;;;2.97;;
49396;SDS011;35615;41.410;2.194;2023-08-30T00:30:16;10.73;;;3.85;;
49396;SDS011;35615;41.410;2.194;2023-08-30T00:32:54;14.30;;;3.63;;
49396;SDS011;35615;41.410;2.194;2023-08-30T00:38:14;15.77;;;2.67;;
49396;SDS011;35615;41.410;2.194;2023-08-30T00:40:47;18.15;;;2.65;;
49396;SDS011;35615;41.410;2.194;2023-08-30T00:43:26;11.38;;;2.70;;
49396;SDS011;35615;41.410;2.194;2023-08-30T00:45:59;14.38;;;2.65;;
49396;SDS011;35615;41.410;2.194;2023-08-30T00:48:34;9.90;;;2.70;;
49396;SDS011;35615;41.410;2.194;2023-08-30T00:51:12;9.75;;;2.75;;
49396;SDS011;35615;41.410;2.194;2023-08-30T00:53:50;7.03;;;2.80;;
49396;SDS011;35615;41.410;2.194;2023-08-30T00:56:24;8.75;;;2.60;;
49396;SDS011;35615;41.410;2.194;2023-08-30T00:59:09;7.18;;;2.28;;
49396;SDS011;35615;41.410;2.194;2023-08-30T01:01:48;7.90;;;2.70;;
49396;SDS011;35615;41.410;2.194;2023-08-30T01:04:26;13.30;;;2.33;;
49396;SDS011;35615;41.410;2.194;2023-08-30T01:06:59;10.40;;;1.92;;
49396;SDS011;35615;41.410;2.194;2023-08-30T01:09:40;6.63;;;2.35;;
49396;SDS011;35615;41.410;2.194;2023-08-30T01:12:31;9.30;;;2.22;;
49396;SDS011;35615;41.410;2.194;2023-08-30T01:15:12;15.13;;;2.55;;
49396;SDS011;35615;41.410;2.194;2023-08-30T01:17:55;7.75;;;2.83;;
49396;SDS011;35615;41.410;2.194;2023-08-30T01:20:31;6.43;;;2.22;;
49396;SDS011;35615;41.410;2.194;2023-08-30T01:23:22;11.40;;;2.72;;
49396;SDS011;35615;41.410;2.194;2023-08-30T01:26:13;7.82;;;2.38;;
49396;SDS011;35615;41.410;2.194;2023-08-30T01:31:52;14.70;;;2.85;;
49396;SDS011;35615;41.410;2.194;2023-08-30T01:34:32;10.90;;;3.45;;
49396;SDS011;35615;41.410;2.194;2023-08-30T01:37:19;7.72;;;2.83;;
49396;SDS011;35615;41.410;2.194;2023-08-30T01:39:58;10.70;;;2.20;;
49396;SDS011;35615;41.410;2.194;2023-08-30T01:45:27;6.80;;;1.77;;
49396;SDS011;35615;41.410;2.194;2023-08-30T01:47:59;7.50;;;2.63;;
49396;SDS011;35615;41.410;2.194;2023-08-30T01:50:40;7.30;;;2.13;;
49396;SDS011;35615;41.410;2.194;2023-08-30T01:53:20;9.15;;;2.35;;
49396;SDS011;35615;41.410;2.194;2023-08-30T01:56:00;4.53;;;2.10;;
49396;SDS011;35615;41.410;2.194;2023-08-30T01:58:31;6.38;;;1.85;;
49396;SDS011;35615;41.410;2.194;2023-08-30T02:01:20;10.07;;;2.75;;
49396;SDS011;35615;41.410;2.194;2023-08-30T02:04:01;6.05;;;2.25;;
49396;SDS011;35615;41.410;2.194;2023-08-30T02:06:42;7.40;;;2.28;;
49396;SDS011;35615;41.410;2.194;2023-08-30T02:12:16;6.20;;;2.05;;
49396;SDS011;35615;41.410;2.194;2023-08-30T02:14:50;5.63;;;2.08;;
49396;SDS011;35615;41.410;2.194;2023-08-30T02:17:28;6.40;;;2.30;;
49396;SDS011;35615;41.410;2.194;2023-08-30T02:20:02;8.43;;;2.33;;
49396;SDS011;35615;41.410;2.194;2023-08-30T02:22:34;12.55;;;3.08;;
49396;SDS011;35615;41.410;2.194;2023-08-30T02:25:11;9.93;;;2.25;;
49396;SDS011;35615;41.410;2.194;2023-08-30T02:27:41;10.20;;;2.00;;
49396;SDS011;35615;41.410;2.194;2023-08-30T02:30:23;6.35;;;2.20;;
49396;SDS011;35615;41.410;2.194;2023-08-30T02:32:57;6.53;;;2.00;;
49396;SDS011;35615;41.410;2.194;2023-08-30T02:35:33;7.57;;;2.13;;
49396;SDS011;35615;41.410;2.194;2023-08-30T02:38:09;12.43;;;2.33;;
49396;SDS011;35615;41.410;2.194;2023-08-30T02:40:48;12.10;;;2.63;;
49396;SDS011;35615;41.410;2.194;2023-08-30T02:43:18;10.65;;;2.63;;
49396;SDS011;35615;41.410;2.194;2023-08-30T02:45:54;12.63;;;2.25;;
49396;SDS011;35615;41.410;2.194;2023-08-30T02:48:41;20.90;;;3.20;;
49396;SDS011;35615;41.410;2.194;2023-08-30T02:51:16;16.95;;;3.63;;
49396;SDS011;35615;41.410;2.194;2023-08-30T02:53:48;9.15;;;2.60;;
49396;SDS011;35615;41.410;2.194;2023-08-30T02:56:20;12.55;;;2.60;;
49396;SDS011;35615;41.410;2.194;2023-08-30T02:59:01;12.52;;;2.67;;
49396;SDS011;35615;41.410;2.194;2023-08-30T03:02:07;5.47;;;1.75;;
49396;SDS011;35615;41.410;2.194;2023-08-30T03:04:43;6.60;;;1.98;;
49396;SDS011;35615;41.410;2.194;2023-08-30T03:07:16;5.63;;;1.70;;
49396;SDS011;35615;41.410;2.194;2023-08-30T03:09:51;7.70;;;1.70;;
49396;SDS011;35615;41.410;2.194;2023-08-30T03:12:23;4.38;;;1.63;;
49396;SDS011;35615;41.410;2.194;2023-08-30T03:14:58;11.10;;;2.20;;
49396;SDS011;35615;41.410;2.194;2023-08-30T03:17:31;10.85;;;2.90;;
49396;SDS011;35615;41.410;2.194;2023-08-30T03:20:11;13.25;;;2.85;;
49396;SDS011;35615;41.410;2.194;2023-08-30T03:22:48;15.98;;;3.10;;
49396;SDS011;35615;41.410;2.194;2023-08-30T03:25:20;15.98;;;2.80;;
49396;SDS011;35615;41.410;2.194;2023-08-30T03:28:00;10.80;;;2.83;;
49396;SDS011;35615;41.410;2.194;2023-08-30T03:33:21;9.13;;;2.80;;
49396;SDS011;35615;41.410;2.194;2023-08-30T03:35:51;13.23;;;2.38;;
49396;SDS011;35615;41.410;2.194;2023-08-30T03:38:28;10.00;;;2.80;;
49396;SDS011;35615;41.410;2.194;2023-08-30T03:41:11;12.32;;;2.65;;
49396;SDS011;35615;41.410;2.194;2023-08-30T03:46:17;14.13;;;3.40;;
49396;SDS011;35615;41.410;2.194;2023-08-30T03:48:50;15.07;;;2.83;;
49396;SDS011;35615;41.410;2.194;2023-08-30T03:51:30;12.88;;;3.05;;
49396;SDS011;35615;41.410;2.194;2023-08-30T03:54:04;12.32;;;2.53;;
49396;SDS011;35615;41.410;2.194;2023-08-30T03:56:40;15.40;;;3.85;;
49396;SDS011;35615;41.410;2.194;2023-08-30T03:59:19;10.48;;;2.53;;
49396;SDS011;35615;41.410;2.194;2023-08-30T04:01:58;17.10;;;3.15;;
49396;SDS011;35615;41.410;2.194;2023-08-30T04:04:38;10.85;;;3.38;;
49396;SDS011;35615;41.410;2.194;2023-08-30T04:07:16;21.67;;;4.15;;
49396;SDS011;35615;41.410;2.194;2023-08-30T04:12:46;15.88;;;2.88;;
49396;SDS011;35615;41.410;2.194;2023-08-30T04:15:34;27.88;;;3.28;;
49396;SDS011;35615;41.410;2.194;2023-08-30T04:18:18;17.27;;;2.83;;
49396;SDS011;35615;41.410;2.194;2023-08-30T04:20:56;12.63;;;2.90;;
49396;SDS011;35615;41.410;2.194;2023-08-30T04:24:02;21.95;;;4.25;;
49396;SDS011;35615;41.410;2.194;2023-08-30T04:26:38;15.60;;;3.22;;
49396;SDS011;35615;41.410;2.194;2023-08-30T04:29:22;20.52;;;4.18;;
49396;SDS011;35615;41.410;2.194;2023-08-30T04:32:01;17.95;;;3.65;;
49396;SDS011;35615;41.410;2.194;2023-08-30T04:34:43;13.70;;;3.65;;
49396;SDS011;35615;41.410;2.194;2023-08-30T04:37:14;13.70;;;3.63;;
49396;SDS011;35615;41.410;2.194;2023-08-30T04:39:55;14.80;;;3.28;;
49396;SDS011;35615;41.410;2.194;2023-08-30T04:42:29;10.05;;;3.10;;
49396;SDS011;35615;41.410;2.194;2023-08-30T04:45:03;15.95;;;3.55;;
49396;SDS011;35615;41.410;2.194;2023-08-30T04:47:32;12.13;;;3.67;;
49396;SDS011;35615;41.410;2.194;2023-08-30T04:50:13;12.13;;;3.50;;
49396;SDS011;35615;41.410;2.194;2023-08-30T04:52:52;9.85;;;2.95;;
49396;SDS011;35615;41.410;2.194;2023-08-30T04:55:28;12.25;;;2.95;;
49396;SDS011;35615;41.410;2.194;2023-08-30T04:58:07;16.48;;;3.08;;
49396;SDS011;35615;41.410;2.194;2023-08-30T05:00:36;12.15;;;2.97;;
49396;SDS011;35615;41.410;2.194;2023-08-30T05:03:10;11.20;;;3.03;;
49396;SDS011;35615;41.410;2.194;2023-08-30T05:05:48;7.13;;;3.63;;
49396;SDS011;35615;41.410;2.194;2023-08-30T05:11:09;11.57;;;2.92;;
49396;SDS011;35615;41.410;2.194;2023-08-30T05:13:43;7.55;;;2.75;;
49396;SDS011;35615;41.410;2.194;2023-08-30T05:16:19;8.20;;;2.65;;
49396;SDS011;35615;41.410;2.194;2023-08-30T05:18:51;14.48;;;3.05;;
49396;SDS011;35615;41.410;2.194;2023-08-30T05:21:26;9.85;;;3.80;;
49396;SDS011;35615;41.410;2.194;2023-08-30T05:23:55;12.35;;;3.15;;
49396;SDS011;35615;41.410;2.194;2023-08-30T05:29:24;11.85;;;3.55;;
49396;SDS011;35615;41.410;2.194;2023-08-30T05:31:54;18.02;;;3.50;;
49396;SDS011;35615;41.410;2.194;2023-08-30T05:34:40;13.13;;;3.40;;
49396;SDS011;35615;41.410;2.194;2023-08-30T05:37:17;13.15;;;3.10;;
49396;SDS011;35615;41.410;2.194;2023-08-30T05:40:02;15.38;;;3.15;;
49396;SDS011;35615;41.410;2.194;2023-08-30T05:42:31;10.55;;;3.30;;
49396;SDS011;35615;41.410;2.194;2023-08-30T05:44:58;11.43;;;2.92;;
49396;SDS011;35615;41.410;2.194;2023-08-30T05:47:26;9.65;;;3.08;;
49396;SDS011;35615;41.410;2.194;2023-08-30T05:49:53;7.10;;;2.58;;
49396;SDS011;35615;41.410;2.194;2023-08-30T05:52:21;15.15;;;3.72;;
49396;SDS011;35615;41.410;2.194;2023-08-30T05:54:50;10.13;;;2.85;;
49396;SDS011;35615;41.410;2.194;2023-08-30T05:57:24;8.75;;;3.58;;
49396;SDS011;35615;41.410;2.194;2023-08-30T05:59:52;22.48;;;5.13;;
49396;SDS011;35615;41.410;2.194;2023-08-30T06:02:19;8.77;;;3.03;;
49396;SDS011;35615;41.410;2.194;2023-08-30T06:04:46;13.80;;;3.45;;
49396;SDS011;35615;41.410;2.194;2023-08-30T06:07:16;9.88;;;3.10;;
49396;SDS011;35615;41.410;2.194;2023-08-30T06:09:48;13.70;;;2.83;;
49396;SDS011;35615;41.410;2.194;2023-08-30T06:12:18;7.10;;;2.95;;
49396;SDS011;35615;41.410;2.194;2023-08-30T06:14:46;12.38;;;3.20;;
49396;SDS011;35615;41.410;2.194;2023-08-30T06:17:21;9.10;;;3.03;;
49396;SDS011;35615;41.410;2.194;2023-08-30T06:19:49;10.98;;;2.80;;
49396;SDS011;35615;41.410;2.194;2023-08-30T06:22:17;12.25;;;3.15;;
49396;SDS011;35615;41.410;2.194;2023-08-30T06:24:47;10.00;;;3.08;;
49396;SDS011;35615;41.410;2.194;2023-08-30T06:27:18;22.95;;;3.88;;
49396;SDS011;35615;41.410;2.194;2023-08-30T06:29:45;10.88;;;3.60;;
49396;SDS011;35615;41.410;2.194;2023-08-30T06:32:12;12.13;;;3.10;;
49396;SDS011;35615;41.410;2.194;2023-08-30T06:34:40;7.97;;;2.80;;
49396;SDS011;35615;41.410;2.194;2023-08-30T06:37:07;13.05;;;3.20;;
49396;SDS011;35615;41.410;2.194;2023-08-30T06:39:35;31.92;;;3.65;;
49396;SDS011;35615;41.410;2.194;2023-08-30T06:42:05;17.65;;;4.60;;
49396;SDS011;35615;41.410;2.194;2023-08-30T06:44:33;14.38;;;3.78;;
49396;SDS011;35615;41.410;2.194;2023-08-30T06:47:01;8.35;;;3.30;;
49396;SDS011;35615;41.410;2.194;2023-08-30T06:49:35;14.63;;;3.70;;
49396;SDS011;35615;41.410;2.194;2023-08-30T06:52:02;15.10;;;3.67;;
49396;SDS011;35615;41.410;2.194;2023-08-30T06:54:34;18.70;;;3.92;;
49396;SDS011;35615;41.410;2.194;2023-08-30T06:57:11;20.20;;;3.85;;
49396;SDS011;35615;41.410;2.194;2023-08-30T06:59:45;13.93;;;4.22;;
49396;SDS011;35615;41.410;2.194;2023-08-30T07:02:12;11.65;;;3.72;;
49396;SDS011;35615;41.410;2.194;2023-08-30T07:04:53;14.13;;;3.85;;
49396;SDS011;35615;41.410;2.194;2023-08-30T07:07:25;17.67;;;3.92;;
49396;SDS011;35615;41.410;2.194;2023-08-30T07:10:18;15.02;;;3.60;;
49396;SDS011;35615;41.410;2.194;2023-08-30T07:12:50;15.90;;;3.60;;
49396;SDS011;35615;41.410;2.194;2023-08-30T07:15:21;22.42;;;3.80;;
49396;SDS011;35615;41.410;2.194;2023-08-30T07:17:55;11.05;;;3.70;;
49396;SDS011;35615;41.410;2.194;2023-08-30T07:20:35;16.88;;;3.30;;
49396;SDS011;35615;41.410;2.194;2023-08-30T07:23:20;10.80;;;3.63;;
49396;SDS011;35615;41.410;2.194;2023-08-30T07:25:54;16.70;;;4.40;;
49396;SDS011;35615;41.410;2.194;2023-08-30T07:28:28;13.43;;;4.25;;
49396;SDS011;35615;41.410;2.194;2023-08-30T07:31:02;15.38;;;3.45;;
49396;SDS011;35615;41.410;2.194;2023-08-30T07:33:43;20.83;;;4.25;;
49396;SDS011;35615;41.410;2.194;2023-08-30T07:36:16;24.10;;;4.35;;
49396;SDS011;35615;41.410;2.194;2023-08-30T07:38:56;16.27;;;4.60;;
49396;SDS011;35615;41.410;2.194;2023-08-30T07:41:34;19.15;;;5.18;;
49396;SDS011;35615;41.410;2.194;2023-08-30T07:44:10;19.43;;;4.53;;
49396;SDS011;35615;41.410;2.194;2023-08-30T07:46:40;17.60;;;4.32;;
49396;SDS011;35615;41.410;2.194;2023-08-30T07:49:09;16.13;;;4.93;;
49396;SDS011;35615;41.410;2.194;2023-08-30T07:51:42;14.25;;;5.00;;
49396;SDS011;35615;41.410;2.194;2023-08-30T07:54:17;13.52;;;5.20;;
49396;SDS011;35615;41.410;2.194;2023-08-30T07:56:49;15.93;;;4.55;;
49396;SDS011;35615;41.410;2.194;2023-08-30T07:59:20;13.32;;;4.15;;
49396;SDS011;35615;41.410;2.194;2023-08-30T08:01:53;14.90;;;4.28;;
49396;SDS011;35615;41.410;2.194;2023-08-30T08:04:26;18.75;;;3.58;;
49396;SDS011;35615;41.410;2.194;2023-08-30T08:06:58;14.05;;;3.83;;
49396;SDS011;35615;41.410;2.194;2023-08-30T08:09:28;16.55;;;4.05;;
49396;SDS011;35615;41.410;2.194;2023-08-30T08:12:01;17.98;;;3.72;;
49396;SDS011;35615;41.410;2.194;2023-08-30T08:14:32;18.63;;;5.38;;
49396;SDS011;35615;41.410;2.194;2023-08-30T08:17:04;15.50;;;3.83;;
49396;SDS011;35615;41.410;2.194;2023-08-30T08:19:37;14.70;;;4.13;;
49396;SDS011;35615;41.410;2.194;2023-08-30T08:22:14;9.40;;;3.88;;
49396;SDS011;35615;41.410;2.194;2023-08-30T08:24:46;13.13;;;4.20;;
49396;SDS011;35615;41.410;2.194;2023-08-30T08:27:19;13.02;;;4.97;;
49396;SDS011;35615;41.410;2.194;2023-08-30T08:29:47;13.00;;;3.63;;
49396;SDS011;35615;41.410;2.194;2023-08-30T08:32:22;21.07;;;4.13;;
49396;SDS011;35615;41.410;2.194;2023-08-30T08:34:57;12.43;;;4.45;;
49396;SDS011;35615;41.410;2.194;2023-08-30T08:37:25;8.43;;;3.38;;
49396;SDS011;35615;41.410;2.194;2023-08-30T08:39:58;13.60;;;3.22;;
49396;SDS011;35615;41.410;2.194;2023-08-30T08:42:29;22.23;;;4.35;;
49396;SDS011;35615;41.410;2.194;2023-08-30T08:45:02;14.65;;;3.53;;
49396;SDS011;35615;41.410;2.194;2023-08-30T08:47:33;11.82;;;3.80;;
49396;SDS011;35615;41.410;2.194;2023-08-30T08:50:04;12.98;;;3.88;;
49396;SDS011;35615;41.410;2.194;2023-08-30T08:52:32;8.68;;;3.50;;
49396;SDS011;35615;41.410;2.194;2023-08-30T08:55:34;12.65;;;3.33;;
49396;SDS011;35615;41.410;2.194;2023-08-30T08:58:08;8.63;;;3.88;;
49396;SDS011;35615;41.410;2.194;2023-08-30T09:00:36;11.13;;;3.58;;
49396;SDS011;35615;41.410;2.194;2023-08-30T09:03:13;10.40;;;3.45;;
49396;SDS011;35615;41.410;2.194;2023-08-30T09:05:42;8.40;;;4.03;;
49396;SDS011;35615;41.410;2.194;2023-08-30T09:08:13;11.35;;;3.42;;
49396;SDS011;35615;41.410;2.194;2023-08-30T09:10:42;11.48;;;3.65;;
49396;SDS011;35615;41.410;2.194;2023-08-30T09:13:10;11.45;;;4.13;;
49396;SDS011;35615;41.410;2.194;2023-08-30T09:15:42;9.98;;;3.22;;
49396;SDS011;35615;41.410;2.194;2023-08-30T09:18:17;9.32;;;4.18;;
49396;SDS011;35615;41.410;2.194;2023-08-30T09:20:48;13.20;;;4.25;;
49396;SDS011;35615;41.410;2.194;2023-08-30T09:23:16;10.10;;;4.05;;
49396;SDS011;35615;41.410;2.194;2023-08-30T09:25:47;7.25;;;3.30;;
49396;SDS011;35615;41.410;2.194;2023-08-30T09:28:28;10.80;;;4.15;;
49396;SDS011;35615;41.410;2.194;2023-08-30T09:30:59;16.85;;;5.32;;
49396;SDS011;35615;41.410;2.194;2023-08-30T09:33:46;12.55;;;4.15;;
49396;SDS011;35615;41.410;2.194;2023-08-30T09:36:19;10.35;;;3.97;;
49396;SDS011;35615;41.410;2.194;2023-08-30T09:38:52;10.98;;;3.22;;
49396;SDS011;35615;41.410;2.194;2023-08-30T09:41:25;6.70;;;3.55;;
49396;SDS011;35615;41.410;2.194;2023-08-30T09:43:54;9.25;;;3.30;;
49396;SDS011;35615;41.410;2.194;2023-08-30T09:46:46;13.65;;;4.22;;
49396;SDS011;35615;41.410;2.194;2023-08-30T09:49:24;20.98;;;5.30;;
49396;SDS011;35615;41.410;2.194;2023-08-30T09:51:59;11.50;;;4.18;;
49396;SDS011;35615;41.410;2.194;2023-08-30T09:54:48;12.43;;;3.75;;
49396;SDS011;35615;41.410;2.194;2023-08-30T09:57:17;12.52;;;4.65;;
49396;SDS011;35615;41.410;2.194;2023-08-30T10:00:05;16.63;;;4.00;;
49396;SDS011;35615;41.410;2.194;2023-08-30T10:02:51;7.05;;;3.50;;
49396;SDS011;35615;41.410;2.194;2023-08-30T10:05:42;7.32;;;3.63;;
49396;SDS011;35615;41.410;2.194;2023-08-30T10:08:18;20.17;;;4.65;;
49396;SDS011;35615;41.410;2.194;2023-08-30T10:10:52;16.25;;;3.90;;
49396;SDS011;35615;41.410;2.194;2023-08-30T10:13:25;14.00;;;4.78;;
49396;SDS011;35615;41.410;2.194;2023-08-30T10:16:01;11.15;;;3.47;;
49396;SDS011;35615;41.410;2.194;2023-08-30T10:18:50;14.93;;;3.42;;
49396;SDS011;35615;41.410;2.194;2023-08-30T10:24:16;12.82;;;3.10;;
49396;SDS011;35615;41.410;2.194;2023-08-30T10:27:01;7.88;;;3.90;;
49396;SDS011;35615;41.410;2.194;2023-08-30T10:29:46;9.73;;;3.78;;
49396;SDS011;35615;41.410;2.194;2023-08-30T10:32:30;8.77;;;2.85;;
49396;SDS011;35615;41.410;2.194;2023-08-30T10:35:22;8.20;;;3.13;;
49396;SDS011;35615;41.410;2.194;2023-08-30T10:37:56;9.43;;;3.28;;
49396;SDS011;35615;41.410;2.194;2023-08-30T10:40:28;8.77;;;3.47;;
49396;SDS011;35615;41.410;2.194;2023-08-30T10:43:03;10.38;;;4.85;;
49396;SDS011;35615;41.410;2.194;2023-08-30T10:45:34;13.82;;;4.28;;
49396;SDS011;35615;41.410;2.194;2023-08-30T10:48:07;16.92;;;5.25;;
49396;SDS011;35615;41.410;2.194;2023-08-30T10:50:35;7.25;;;4.47;;
49396;SDS011;35615;41.410;2.194;2023-08-30T10:53:15;9.40;;;3.40;;
49396;SDS011;35615;41.410;2.194;2023-08-30T10:56:02;8.70;;;4.60;;
49396;SDS011;35615;41.410;2.194;2023-08-30T10:58:43;12.07;;;4.90;;
49396;SDS011;35615;41.410;2.194;2023-08-30T11:01:14;11.07;;;6.10;;
49396;SDS011;35615;41.410;2.194;2023-08-30T11:03:51;9.88;;;4.22;;
49396;SDS011;35615;41.410;2.194;2023-08-30T11:06:44;21.55;;;5.57;;
49396;SDS011;35615;41.410;2.194;2023-08-30T11:09:22;10.57;;;5.07;;
49396;SDS011;35615;41.410;2.194;2023-08-30T11:11:51;5.70;;;3.22;;
49396;SDS011;35615;41.410;2.194;2023-08-30T11:14:21;12.23;;;4.28;;
49396;SDS011;35615;41.410;2.194;2023-08-30T11:16:51;11.73;;;4.53;;
49396;SDS011;35615;41.410;2.194;2023-08-30T11:19:29;10.70;;;3.60;;
49396;SDS011;35615;41.410;2.194;2023-08-30T11:22:00;15.35;;;6.57;;
49396;SDS011;35615;41.410;2.194;2023-08-30T11:24:28;9.10;;;4.38;;
49396;SDS011;35615;41.410;2.194;2023-08-30T11:26:55;8.55;;;3.30;;
49396;SDS011;35615;41.410;2.194;2023-08-30T11:29:31;14.43;;;5.25;;
49396;SDS011;35615;41.410;2.194;2023-08-30T11:32:12;9.68;;;3.53;;
49396;SDS011;35615;41.410;2.194;2023-08-30T11:34:40;6.55;;;3.15;;
49396;SDS011;35615;41.410;2.194;2023-08-30T11:37:09;6.20;;;3.38;;
49396;SDS011;35615;41.410;2.194;2023-08-30T11:39:36;12.32;;;3.10;;
49396;SDS011;35615;41.410;2.194;2023-08-30T11:42:04;8.60;;;2.92;;
49396;SDS011;35615;41.410;2.194;2023-08-30T11:44:44;9.60;;;3.33;;
49396;SDS011;35615;41.410;2.194;2023-08-30T11:47:33;5.78;;;2.70;;
49396;SDS011;35615;41.410;2.194;2023-08-30T11:50:00;12.95;;;3.25;;
49396;SDS011;35615;41.410;2.194;2023-08-30T11:52:28;8.57;;;3.03;;
49396;SDS011;35615;41.410;2.194;2023-08-30T11:54:56;7.60;;;3.10;;
49396;SDS011;35615;41.410;2.194;2023-08-30T11:57:23;8.48;;;2.85;;
49396;SDS011;35615;41.410;2.194;2023-08-30T11:59:55;7.75;;;3.50;;
49396;SDS011;35615;41.410;2.194;2023-08-30T12:02:33;6.85;;;3.13;;
49396;SDS011;35615;41.410;2.194;2023-08-30T12:05:02;10.00;;;3.35;;
49396;SDS011;35615;41.410;2.194;2023-08-30T12:07:34;10.75;;;3.47;;
49396;SDS011;35615;41.410;2.194;2023-08-30T12:10:07;8.63;;;3.15;;
49396;SDS011;35615;41.410;2.194;2023-08-30T12:12:36;14.35;;;3.60;;
49396;SDS011;35615;41.410;2.194;2023-08-30T12:15:10;10.93;;;3.35;;
49396;SDS011;35615;41.410;2.194;2023-08-30T12:17:38;33.28;;;7.30;;
49396;SDS011;35615;41.410;2.194;2023-08-30T12:20:06;23.55;;;6.68;;
49396;SDS011;35615;41.410;2.194;2023-08-30T12:22:41;10.20;;;2.80;;
49396;SDS011;35615;41.410;2.194;2023-08-30T12:25:15;12.50;;;3.40;;
49396;SDS011;35615;41.410;2.194;2023-08-30T12:27:47;9.82;;;4.05;;
49396;SDS011;35615;41.410;2.194;2023-08-30T12:30:14;18.52;;;4.05;;
49396;SDS011;35615;41.410;2.194;2023-08-30T12:32:43;9.63;;;3.17;;
49396;SDS011;35615;41.410;2.194;2023-08-30T12:35:11;12.32;;;3.45;;
49396;SDS011;35615;41.410;2.194;2023-08-30T12:37:41;14.27;;;3.45;;
49396;SDS011;35615;41.410;2.194;2023-08-30T12:40:11;11.32;;;2.97;;
49396;SDS011;35615;41.410;2.194;2023-08-30T12:42:39;8.23;;;2.85;;
49396;SDS011;35615;41.410;2.194;2023-08-30T12:45:06;9.32;;;3.47;;
49396;SDS011;35615;41.410;2.194;2023-08-30T12:47:34;10.65;;;3.40;;
49396;SDS011;35615;41.410;2.194;2023-08-30T12:50:03;9.50;;;2.97;;
49396;SDS011;35615;41.410;2.194;2023-08-30T12:52:33;13.43;;;3.35;;
49396;SDS011;35615;41.410;2.194;2023-08-30T12:55:04;13.77;;;3.83;;
49396;SDS011;35615;41.410;2.194;2023-08-30T12:57:35;10.13;;;2.80;;
49396;SDS011;35615;41.410;2.194;2023-08-30T13:00:02;12.65;;;3.38;;
49396;SDS011;35615;41.410;2.194;2023-08-30T13:02:31;10.73;;;3.72;;
49396;SDS011;35615;41.410;2.194;2023-08-30T13:04:59;7.50;;;2.58;;
49396;SDS011;35615;41.410;2.194;2023-08-30T13:07:43;12.73;;;3.85;;
49396;SDS011;35615;41.410;2.194;2023-08-30T13:10:18;7.40;;;3.20;;
49396;SDS011;35615;41.410;2.194;2023-08-30T13:12:45;10.30;;;3.63;;
49396;SDS011;35615;41.410;2.194;2023-08-30T13:15:13;13.07;;;3.17;;
49396;SDS011;35615;41.410;2.194;2023-08-30T13:17:40;10.75;;;3.17;;
49396;SDS011;35615;41.410;2.194;2023-08-30T13:20:07;8.55;;;2.97;;
49396;SDS011;35615;41.410;2.194;2023-08-30T13:22:41;11.32;;;3.70;;
49396;SDS011;35615;41.410;2.194;2023-08-30T13:25:08;8.02;;;3.28;;
49396;SDS011;35615;41.410;2.194;2023-08-30T13:27:35;9.55;;;3.50;;
49396;SDS011;35615;41.410;2.194;2023-08-30T13:30:05;9.05;;;3.22;;
49396;SDS011;35615;41.410;2.194;2023-08-30T13:32:34;7.85;;;3.38;;
49396;SDS011;35615;41.410;2.194;2023-08-30T13:35:02;10.07;;;3.40;;
49396;SDS011;35615;41.410;2.194;2023-08-30T13:37:32;12.50;;;3.70;;
49396;SDS011;35615;41.410;2.194;2023-08-30T13:39:59;8.85;;;3.55;;
49396;SDS011;35615;41.410;2.194;2023-08-30T13:42:26;8.55;;;3.20;;
49396;SDS011;35615;41.410;2.194;2023-08-30T13:44:54;7.88;;;3.22;;
49396;SDS011;35615;41.410;2.194;2023-08-30T13:47:21;10.52;;;3.45;;
49396;SDS011;35615;41.410;2.194;2023-08-30T13:49:49;11.40;;;3.10;;
49396;SDS011;35615;41.410;2.194;2023-08-30T13:52:19;16.90;;;3.25;;
49396;SDS011;35615;41.410;2.194;2023-08-30T13:54:46;5.70;;;3.20;;
49396;SDS011;35615;41.410;2.194;2023-08-30T13:57:17;15.00;;;3.50;;
49396;SDS011;35615;41.410;2.194;2023-08-30T13:59:44;10.60;;;2.80;;
49396;SDS011;35615;41.410;2.194;2023-08-30T14:02:12;12.73;;;3.35;;
49396;SDS011;35615;41.410;2.194;2023-08-30T14:04:39;10.60;;;3.20;;
49396;SDS011;35615;41.410;2.194;2023-08-30T14:07:06;10.50;;;2.97;;
49396;SDS011;35615;41.410;2.194;2023-08-30T14:09:33;9.63;;;2.80;;
49396;SDS011;35615;41.410;2.194;2023-08-30T14:12:01;7.65;;;2.63;;
49396;SDS011;35615;41.410;2.194;2023-08-30T14:14:31;12.93;;;2.75;;
49396;SDS011;35615;41.410;2.194;2023-08-30T14:16:58;11.65;;;3.10;;
49396;SDS011;35615;41.410;2.194;2023-08-30T14:19:34;16.10;;;3.22;;
49396;SDS011;35615;41.410;2.194;2023-08-30T14:22:02;13.02;;;3.72;;
49396;SDS011;35615;41.410;2.194;2023-08-30T14:24:32;7.82;;;2.92;;
49396;SDS011;35615;41.410;2.194;2023-08-30T14:27:12;8.20;;;3.10;;
49396;SDS011;35615;41.410;2.194;2023-08-30T14:29:40;4.25;;;2.70;;
49396;SDS011;35615;41.410;2.194;2023-08-30T14:32:07;13.57;;;3.35;;
49396;SDS011;35615;41.410;2.194;2023-08-30T14:34:34;9.88;;;2.85;;
49396;SDS011;35615;41.410;2.194;2023-08-30T14:37:11;15.38;;;3.13;;
49396;SDS011;35615;41.410;2.194;2023-08-30T14:39:45;10.50;;;3.03;;
49396;SDS011;35615;41.410;2.194;2023-08-30T14:42:20;9.68;;;3.17;;
49396;SDS011;35615;41.410;2.194;2023-08-30T14:44:51;11.82;;;3.50;;
49396;SDS011;35615;41.410;2.194;2023-08-30T14:47:20;17.13;;;3.35;;
49396;SDS011;35615;41.410;2.194;2023-08-30T14:49:48;10.95;;;2.90;;
49396;SDS011;35615;41.410;2.194;2023-08-30T14:52:15;13.43;;;2.78;;
49396;SDS011;35615;41.410;2.194;2023-08-30T14:54:43;14.25;;;3.40;;
49396;SDS011;35615;41.410;2.194;2023-08-30T14:57:10;12.43;;;3.00;;
49396;SDS011;35615;41.410;2.194;2023-08-30T14:59:44;12.63;;;2.70;;
49396;SDS011;35615;41.410;2.194;2023-08-30T15:02:14;12.43;;;2.80;;
49396;SDS011;35615;41.410;2.194;2023-08-30T15:04:41;13.05;;;3.72;;
49396;SDS011;35615;41.410;2.194;2023-08-30T15:07:09;12.20;;;3.30;;
49396;SDS011;35615;41.410;2.194;2023-08-30T15:09:49;16.90;;;3.80;;
49396;SDS011;35615;41.410;2.194;2023-08-30T15:12:21;14.13;;;3.42;;
49396;SDS011;35615;41.410;2.194;2023-08-30T15:14:48;10.43;;;2.65;;
49396;SDS011;35615;41.410;2.194;2023-08-30T15:17:16;10.88;;;3.53;;
49396;SDS011;35615;41.410;2.194;2023-08-30T15:19:43;7.38;;;3.20;;
49396;SDS011;35615;41.410;2.194;2023-08-30T15:22:11;16.80;;;3.40;;
49396;SDS011;35615;41.410;2.194;2023-08-30T15:24:38;12.60;;;3.30;;
49396;SDS011;35615;41.410;2.194;2023-08-30T15:27:06;17.52;;;3.95;;
49396;SDS011;35615;41.410;2.194;2023-08-30T15:29:34;10.70;;;3.20;;
49396;SDS011;35615;41.410;2.194;2023-08-30T15:32:02;9.18;;;3.50;;
49396;SDS011;35615;41.410;2.194;2023-08-30T15:34:39;9.70;;;2.83;;
49396;SDS011;35615;41.410;2.194;2023-08-30T15:37:14;12.85;;;3.35;;
49396;SDS011;35615;41.410;2.194;2023-08-30T15:39:42;10.35;;;2.72;;
49396;SDS011;35615;41.410;2.194;2023-08-30T15:42:13;9.55;;;3.08;;
49396;SDS011;35615;41.410;2.194;2023-08-30T15:44:40;9.95;;;2.80;;
49396;SDS011;35615;41.410;2.194;2023-08-30T15:47:08;10.23;;;3.30;;